Time;durP1;ratioP1;P1;durP2;ratioP2;P2;SDS_P1;SDS_P2;PMS_P1;PMS_P2;Temp;Humidity;BMP_temperature;BMP_pressure;BME280_temperature;BME280_humidity;BME280_pressure;Samples;Min_cycle;Max_cycle;Signal;HPM_P1;HPM_P2
2022/03/15 00:00:52;;;;;;;16.42;9.38;;;4.40;99.90;;;;;;4816846;29;20130;-83
2022/03/15 00:03:18;;;;;;;20.67;8.70;;;4.80;99.90;;;;;;4805256;29;20066;-83
2022/03/15 00:05:44;;;;;;;15.40;8.23;;;4.40;99.90;;;;;;4805018;29;20046;-83
2022/03/15 00:08:10;;;;;;;17.05;8.65;;;4.50;99.90;;;;;;4803993;29;20130;-83
2022/03/15 00:10:36;;;;;;;17.05;9.48;;;4.50;99.90;;;;;;4813589;29;20058;-82
2022/03/15 00:13:02;;;;;;;15.85;8.52;;;4.40;99.90;;;;;;4805659;29;20046;-83
2022/03/15 00:15:28;;;;;;;17.50;9.13;;;4.80;99.90;;;;;;4808432;29;20079;-82
2022/03/15 00:17:54;;;;;;;20.77;9.27;;;4.50;99.90;;;;;;4813823;29;20054;-83
2022/03/15 00:20:22;;;;;;;13.80;8.85;;;4.80;99.90;;;;;;4804989;29;20396;-82
2022/03/15 00:22:49;;;;;;;18.95;9.18;;;4.60;99.90;;;;;;4803721;29;20133;-82
2022/03/15 00:25:17;;;;;;;19.55;10.13;;;4.40;99.90;;;;;;4803630;29;20173;-83
2022/03/15 00:27:47;;;;;;;16.85;9.02;;;4.60;99.90;;;;;;4806935;29;20062;-82
2022/03/15 00:30:14;;;;;;;18.17;9.23;;;4.70;99.90;;;;;;4836885;29;20137;-82
2022/03/15 00:32:41;;;;;;;21.58;9.57;;;4.90;99.90;;;;;;4809527;29;20090;-82
2022/03/15 00:35:09;;;;;;;18.98;9.95;;;5.00;99.90;;;;;;4804012;29;20055;-83
2022/03/15 00:37:36;;;;;;;22.52;9.27;;;5.00;99.90;;;;;;4802909;29;20125;-83
2022/03/15 00:40:03;;;;;;;12.88;8.38;;;5.00;99.90;;;;;;4817446;29;20114;-82
2022/03/15 00:42:28;;;;;;;16.77;8.52;;;5.00;99.90;;;;;;4804245;29;20501;-83
2022/03/15 00:44:54;;;;;;;25.70;11.30;;;5.40;99.90;;;;;;4804452;29;20069;-82
2022/03/15 00:47:20;;;;;;;17.90;9.90;;;4.90;99.90;;;;;;4804420;29;20138;-83
2022/03/15 00:49:45;;;;;;;19.70;9.68;;;5.30;99.90;;;;;;4803762;29;20524;-82
2022/03/15 00:52:11;;;;;;;14.05;8.88;;;5.00;99.90;;;;;;4804583;29;20556;-83
2022/03/15 00:54:37;;;;;;;19.48;9.27;;;5.00;99.90;;;;;;4816104;29;20058;-83
2022/03/15 00:57:03;;;;;;;17.27;8.10;;;5.00;99.90;;;;;;4807218;29;20055;-83
2022/03/15 00:59:29;;;;;;;15.73;8.02;;;5.00;99.90;;;;;;4813366;29;20058;-83
2022/03/15 01:01:56;;;;;;;15.57;8.45;;;4.90;99.90;;;;;;4804105;29;20066;-83
2022/03/15 01:04:22;;;;;;;16.55;8.60;;;4.90;99.90;;;;;;4803427;29;20039;-83
2022/03/15 01:06:48;;;;;;;15.65;8.00;;;4.70;99.90;;;;;;4809674;29;20202;-83
2022/03/15 01:09:13;;;;;;;12.55;7.45;;;4.70;99.90;;;;;;4803203;29;20553;-83
2022/03/15 01:11:39;;;;;;;17.60;7.75;;;4.70;99.90;;;;;;4818849;29;20055;-83
2022/03/15 01:14:05;;;;;;;20.08;8.60;;;5.00;99.90;;;;;;4807982;29;20094;-83
2022/03/15 01:16:31;;;;;;;18.23;9.02;;;4.80;99.90;;;;;;4806208;29;20058;-83
2022/03/15 01:18:57;;;;;;;16.25;8.93;;;4.90;99.90;;;;;;4808853;29;20054;-83
2022/03/15 01:21:23;;;;;;;19.40;8.35;;;4.90;99.90;;;;;;4809161;29;20069;-83
2022/03/15 01:23:49;;;;;;;14.40;8.10;;;5.30;99.90;;;;;;4807411;29;20090;-83
2022/03/15 01:26:14;;;;;;;12.40;7.22;;;5.50;99.90;;;;;;4809171;29;20516;-83
2022/03/15 01:28:41;;;;;;;12.65;7.32;;;5.20;99.90;;;;;;4821136;29;20107;-83
2022/03/15 01:31:07;;;;;;;12.73;6.85;;;4.70;99.90;;;;;;4838200;29;20054;-83
2022/03/15 01:33:33;;;;;;;12.93;8.18;;;4.50;99.90;;;;;;4807748;29;20519;-83
2022/03/15 01:35:59;;;;;;;13.23;7.38;;;4.40;99.90;;;;;;4836028;29;20042;-83
2022/03/15 01:38:25;;;;;;;15.32;7.72;;;4.20;99.90;;;;;;4836701;29;20078;-83
2022/03/15 01:40:51;;;;;;;15.05;7.82;;;4.30;99.90;;;;;;4807267;29;20047;-84
2022/03/15 01:43:17;;;;;;;14.27;7.10;;;4.60;99.90;;;;;;4822130;29;20097;-84
2022/03/15 01:45:42;;;;;;;15.32;7.03;;;4.30;99.90;;;;;;4807198;29;20516;-84
2022/03/15 01:48:09;;;;;;;14.68;7.20;;;4.10;99.90;;;;;;4835850;29;20090;-84
2022/03/15 01:50:37;;;;;;;12.77;7.93;;;4.10;99.90;;;;;;4807118;29;20055;-84
2022/03/15 01:53:03;;;;;;;15.27;6.68;;;4.80;99.90;;;;;;4807419;29;20086;-84
2022/03/15 01:55:30;;;;;;;12.77;6.80;;;4.20;99.90;;;;;;4803184;29;20126;-84
2022/03/15 01:57:56;;;;;;;12.52;7.00;;;4.00;99.90;;;;;;4822596;29;20054;-84
2022/03/15 02:00:21;;;;;;;14.57;7.25;;;4.10;99.90;;;;;;4829069;29;20114;-83
2022/03/15 02:02:47;;;;;;;12.18;7.32;;;3.80;99.90;;;;;;4818821;29;20057;-83
2022/03/15 02:05:13;;;;;;;9.60;5.53;;;3.80;99.90;;;;;;4807655;29;20051;-83
2022/03/15 02:07:39;;;;;;;10.27;6.82;;;3.80;99.90;;;;;;4810765;29;20863;-84
2022/03/15 02:10:06;;;;;;;9.10;6.00;;;3.70;99.90;;;;;;4806980;29;20093;-84
2022/03/15 02:12:34;;;;;;;12.05;6.32;;;3.70;99.90;;;;;;4818918;29;20576;-84
2022/03/15 02:15:03;;;;;;;11.05;6.10;;;4.00;99.90;;;;;;4823826;29;20058;-83
2022/03/15 02:17:29;;;;;;;11.68;6.63;;;3.80;99.90;;;;;;4836215;29;20090;-84
2022/03/15 02:19:55;;;;;;;10.55;6.70;;;3.70;99.90;;;;;;4805202;29;20133;-83
2022/03/15 02:22:22;;;;;;;12.07;6.18;;;3.60;99.90;;;;;;4805688;29;20063;-83
2022/03/15 02:24:48;;;;;;;11.57;5.55;;;3.70;99.90;;;;;;4809627;29;20054;-83
2022/03/15 02:27:13;;;;;;;14.57;7.82;;;4.00;99.90;;;;;;4806161;29;20404;-84
2022/03/15 02:29:39;;;;;;;15.30;7.55;;;3.60;99.90;;;;;;4808583;29;20123;-83
2022/03/15 02:32:05;;;;;;;11.05;7.30;;;3.60;99.90;;;;;;4807510;29;20139;-84
2022/03/15 02:34:31;;;;;;;54.30;10.48;;;3.60;99.90;;;;;;4805526;29;20105;-84
2022/03/15 02:36:56;;;;;;;15.23;8.80;;;3.60;99.90;;;;;;4805547;29;20090;-84
2022/03/15 02:39:23;;;;;;;16.50;10.30;;;3.50;99.90;;;;;;4806845;29;20055;-83
2022/03/15 02:41:48;;;;;;;17.88;9.48;;;3.60;99.90;;;;;;4812880;29;20130;-84
2022/03/15 02:44:14;;;;;;;14.30;10.10;;;3.30;99.90;;;;;;4837484;29;20090;-84
2022/03/15 02:46:40;;;;;;;16.70;9.23;;;3.30;99.90;;;;;;4805121;29;20077;-83
2022/03/15 02:49:09;;;;;;;16.02;7.65;;;3.60;99.90;;;;;;4808632;29;20055;-83
2022/03/15 02:51:35;;;;;;;12.82;7.10;;;3.30;99.90;;;;;;4806256;29;20523;-84
2022/03/15 02:54:08;;;;;;;14.07;7.78;;;3.30;99.90;;;;;;4835445;29;20055;-84
2022/03/15 02:56:42;;;;;;;12.48;7.13;;;3.50;99.90;;;;;;4805904;29;20593;-83
2022/03/15 02:59:09;;;;;;;10.13;6.85;;;3.70;99.90;;;;;;4807571;29;20062;-84
2022/03/15 03:01:35;;;;;;;12.45;7.72;;;3.50;99.90;;;;;;4805785;29;20149;-83
2022/03/15 03:04:01;;;;;;;10.18;6.70;;;3.80;99.90;;;;;;4805590;29;20523;-84
2022/03/15 03:06:27;;;;;;;11.05;6.75;;;4.30;99.90;;;;;;4834422;29;20071;-83
2022/03/15 03:08:53;;;;;;;9.30;5.68;;;3.50;99.90;;;;;;4839229;29;20137;-84
2022/03/15 03:11:19;;;;;;;11.48;6.10;;;3.50;99.90;;;;;;4808168;29;20054;-84
2022/03/15 03:13:47;;;;;;;8.75;6.65;;;3.40;99.90;;;;;;4804875;29;20065;-84
2022/03/15 03:16:14;;;;;;;7.53;5.78;;;3.70;99.90;;;;;;4834996;29;20043;-84
2022/03/15 03:18:40;;;;;;;7.18;5.38;;;3.70;99.90;;;;;;4805425;29;20512;-84
2022/03/15 03:21:06;;;;;;;15.30;5.68;;;3.30;99.90;;;;;;4818303;29;20085;-84
2022/03/15 03:23:34;;;;;;;8.00;5.65;;;3.30;99.90;;;;;;4804954;29;20119;-84
2022/03/15 03:26:01;;;;;;;8.07;4.90;;;3.40;99.90;;;;;;4805446;29;20047;-83
2022/03/15 03:28:33;;;;;;;9.52;5.80;;;3.40;99.90;;;;;;4806030;29;20462;-84
2022/03/15 03:31:00;;;;;;;12.07;6.85;;;3.10;99.90;;;;;;4816428;29;20107;-84
2022/03/15 03:33:26;;;;;;;19.42;7.50;;;4.00;99.90;;;;;;4823546;29;20567;-84
2022/03/15 03:35:53;;;;;;;20.80;7.25;;;3.60;99.90;;;;;;4807106;29;20141;-83
2022/03/15 03:38:18;;;;;;;14.13;6.85;;;3.30;99.90;;;;;;4803926;29;20511;-84
2022/03/15 03:40:45;;;;;;;20.52;8.10;;;3.10;99.90;;;;;;4804866;29;20062;-83
2022/03/15 03:43:11;;;;;;;11.18;7.40;;;3.10;99.90;;;;;;4819092;29;20043;-84
2022/03/15 03:45:37;;;;;;;13.25;8.30;;;3.70;99.90;;;;;;4804592;29;20077;-84
2022/03/15 03:48:04;;;;;;;11.27;7.15;;;3.40;99.90;;;;;;4804216;29;20504;-81
2022/03/15 03:50:30;;;;;;;18.35;8.02;;;3.20;99.90;;;;;;4805346;29;20086;-84
2022/03/15 03:52:56;;;;;;;22.88;8.20;;;3.20;99.90;;;;;;4823228;29;20133;-84
2022/03/15 03:55:21;;;;;;;10.95;6.93;;;3.20;99.90;;;;;;4804198;29;20070;-84
2022/03/15 03:57:47;;;;;;;10.88;7.63;;;3.20;99.90;;;;;;4832729;29;20058;-83
2022/03/15 04:00:14;;;;;;;10.77;7.32;;;3.30;99.90;;;;;;4815603;29;20430;-84
2022/03/15 04:02:40;;;;;;;12.50;7.40;;;3.30;99.90;;;;;;4831222;29;20076;-84
2022/03/15 04:05:06;;;;;;;8.70;6.43;;;3.40;99.90;;;;;;4803303;29;20103;-83
2022/03/15 04:07:35;;;;;;;8.25;6.20;;;3.40;99.90;;;;;;4816548;29;20073;-83
2022/03/15 04:10:04;;;;;;;7.22;5.68;;;3.40;99.90;;;;;;4834317;29;20063;-83
2022/03/15 04:12:30;;;;;;;7.20;5.35;;;3.40;99.90;;;;;;4803485;29;20134;-83
2022/03/15 04:14:57;;;;;;;9.93;8.05;;;3.60;99.90;;;;;;4830554;29;20138;-83
2022/03/15 04:17:23;;;;;;;8.68;6.60;;;3.40;99.90;;;;;;4803691;29;20054;-83
2022/03/15 04:19:49;;;;;;;10.82;6.72;;;3.50;99.90;;;;;;4803452;29;20069;-83
2022/03/15 04:22:15;;;;;;;7.07;5.85;;;3.70;99.90;;;;;;4804526;29;20054;-83
2022/03/15 04:24:40;;;;;;;7.85;6.30;;;3.50;99.90;;;;;;4805069;29;20058;-83
2022/03/15 04:27:06;;;;;;;11.68;6.40;;;3.50;99.90;;;;;;4793898;29;20111;-83
2022/03/15 04:29:32;;;;;;;13.10;6.53;;;3.60;99.90;;;;;;4835297;29;20111;-84
2022/03/15 04:31:58;;;;;;;8.43;6.38;;;3.60;99.90;;;;;;4814384;29;20077;-83
2022/03/15 04:34:23;;;;;;;10.35;6.72;;;3.50;99.90;;;;;;4803831;29;20063;-82
2022/03/15 04:36:49;;;;;;;10.98;7.00;;;3.90;99.90;;;;;;4804226;29;20458;-83
2022/03/15 04:39:15;;;;;;;11.00;6.35;;;3.50;99.90;;;;;;4804598;29;20413;-83
2022/03/15 04:41:40;;;;;;;9.15;6.05;;;3.60;99.90;;;;;;4804403;29;20051;-83
2022/03/15 04:44:06;;;;;;;11.25;6.82;;;3.60;99.90;;;;;;4820182;29;20137;-83
2022/03/15 04:46:33;;;;;;;12.85;7.40;;;3.70;99.90;;;;;;4809702;29;20438;-83
2022/03/15 04:48:59;;;;;;;11.07;6.45;;;3.70;99.90;;;;;;4833727;29;20145;-83
2022/03/15 04:51:25;;;;;;;9.15;6.68;;;3.70;99.90;;;;;;4804579;29;20090;-83
2022/03/15 04:53:52;;;;;;;12.02;7.60;;;3.70;99.90;;;;;;4804495;29;20075;-83
2022/03/15 04:56:18;;;;;;;13.68;8.68;;;3.70;99.90;;;;;;4819719;29;20624;-83
2022/03/15 04:58:44;;;;;;;16.08;8.23;;;3.70;99.90;;;;;;4824792;29;20046;-83
2022/03/15 05:01:10;;;;;;;16.55;9.45;;;3.70;99.90;;;;;;4816237;29;20051;-84
2022/03/15 05:03:36;;;;;;;21.88;10.38;;;3.80;99.90;;;;;;4804633;29;20047;-83
2022/03/15 05:06:03;;;;;;;20.80;11.40;;;3.70;99.90;;;;;;4803451;29;20404;-83
2022/03/15 05:08:29;;;;;;;16.60;9.30;;;3.80;99.90;;;;;;4834156;29;20454;-83
2022/03/15 05:11:06;;;;;;;17.48;10.82;;;4.20;99.90;;;;;;4803216;29;20074;-82
2022/03/15 05:13:40;;;;;;;18.85;9.57;;;3.70;99.90;;;;;;4822951;29;20493;-83
2022/03/15 05:16:10;;;;;;;21.70;11.27;;;4.20;99.90;;;;;;4802183;29;20104;-83
2022/03/15 05:18:37;;;;;;;18.20;11.05;;;3.80;99.90;;;;;;4831097;29;20055;-83
2022/03/15 05:21:03;;;;;;;21.00;11.00;;;4.00;99.90;;;;;;4804332;29;20591;-83
2022/03/15 05:23:29;;;;;;;19.77;10.77;;;3.80;99.90;;;;;;4803548;29;20112;-84
2022/03/15 05:25:55;;;;;;;19.00;10.57;;;3.80;99.90;;;;;;4805466;29;20135;-83
2022/03/15 05:28:21;;;;;;;21.52;10.80;;;3.80;99.90;;;;;;4821590;29;20057;-84
2022/03/15 05:30:47;;;;;;;18.17;10.65;;;4.10;99.90;;;;;;4813766;29;20059;-84
2022/03/15 05:33:12;;;;;;;19.70;11.93;;;3.80;99.90;;;;;;4817187;29;20066;-84
2022/03/15 05:35:38;;;;;;;17.67;11.85;;;4.00;99.90;;;;;;4832417;29;20051;-84
2022/03/15 05:38:04;;;;;;;19.00;11.10;;;4.40;99.90;;;;;;4803580;29;20576;-84
2022/03/15 05:40:30;;;;;;;23.02;10.77;;;4.10;99.90;;;;;;4803872;29;20085;-84
2022/03/15 05:42:57;;;;;;;18.35;10.43;;;4.00;99.90;;;;;;4831341;29;20462;-84
2022/03/15 05:45:22;;;;;;;17.95;10.90;;;4.50;99.90;;;;;;4802757;29;20059;-84
2022/03/15 05:47:48;;;;;;;21.38;11.30;;;3.90;99.90;;;;;;4804309;29;20055;-84
2022/03/15 05:50:14;;;;;;;19.30;11.20;;;3.90;99.90;;;;;;4807066;29;20046;-84
2022/03/15 05:52:40;;;;;;;19.95;11.80;;;4.50;99.90;;;;;;4810715;29;20058;-84
2022/03/15 05:55:07;;;;;;;20.05;12.05;;;4.00;99.90;;;;;;4825489;29;20097;-84
2022/03/15 05:57:32;;;;;;;19.10;10.80;;;4.00;99.90;;;;;;4814202;29;20458;-84
2022/03/15 05:59:58;;;;;;;22.42;11.82;;;4.10;99.90;;;;;;4825561;29;20126;-83
2022/03/15 06:02:24;;;;;;;23.35;12.55;;;4.70;99.90;;;;;;4805712;29;20069;-83
2022/03/15 06:04:50;;;;;;;22.05;11.15;;;4.10;99.90;;;;;;4811388;29;20085;-84
2022/03/15 06:07:16;;;;;;;21.92;12.15;;;4.10;99.90;;;;;;4820019;29;20097;-84
2022/03/15 06:09:42;;;;;;;25.05;12.85;;;4.40;99.90;;;;;;4805990;29;20065;-82
2022/03/15 06:12:09;;;;;;;25.15;14.15;;;4.20;99.90;;;;;;4818145;29;20078;-82
2022/03/15 06:14:35;;;;;;;22.23;12.23;;;4.30;99.90;;;;;;4822480;29;20053;-82
2022/03/15 06:17:00;;;;;;;23.58;13.50;;;4.40;99.90;;;;;;4832803;29;20058;-83
2022/03/15 06:19:26;;;;;;;27.67;14.20;;;4.40;99.90;;;;;;4817683;29;20051;-83
2022/03/15 06:21:52;;;;;;;21.58;12.73;;;4.70;99.90;;;;;;4824524;29;20050;-84
2022/03/15 06:24:18;;;;;;;26.55;13.80;;;4.50;99.90;;;;;;4833568;29;20052;-82
2022/03/15 06:26:43;;;;;;;22.52;13.80;;;4.50;99.90;;;;;;4815527;29;20142;-82
2022/03/15 06:29:09;;;;;;;26.92;15.73;;;5.30;99.90;;;;;;4833381;29;20061;-83
2022/03/15 06:31:36;;;;;;;27.65;16.17;;;4.70;99.90;;;;;;4814001;29;20054;-83
2022/03/15 06:34:04;;;;;;;29.48;15.20;;;4.80;99.90;;;;;;4806612;29;20094;-83
2022/03/15 06:36:30;;;;;;;28.45;15.85;;;4.80;99.90;;;;;;4821316;29;20086;-83
2022/03/15 06:38:56;;;;;;;26.90;16.15;;;4.80;99.90;;;;;;4805149;29;20135;-83
2022/03/15 06:41:22;;;;;;;30.75;16.10;;;4.90;99.90;;;;;;4805252;29;20062;-83
2022/03/15 06:43:48;;;;;;;28.38;15.70;;;4.90;99.90;;;;;;4835756;29;20063;-83
2022/03/15 06:46:14;;;;;;;28.40;15.98;;;5.00;99.90;;;;;;4815775;29;20755;-81
2022/03/15 06:48:40;;;;;;;28.75;16.50;;;5.10;99.90;;;;;;4806278;29;20058;-79
2022/03/15 06:51:06;;;;;;;33.03;17.20;;;5.00;99.90;;;;;;4807097;29;20400;-80
2022/03/15 06:53:32;;;;;;;29.98;17.80;;;5.00;99.90;;;;;;4805206;29;20058;-81
2022/03/15 06:55:58;;;;;;;28.40;17.45;;;5.10;99.90;;;;;;4806044;29;20129;-80
2022/03/15 06:58:24;;;;;;;32.90;16.77;;;5.10;99.90;;;;;;4808734;29;20059;-81
2022/03/15 07:00:49;;;;;;;30.13;16.67;;;5.20;99.90;;;;;;4813679;29;20103;-81
2022/03/15 07:03:15;;;;;;;34.30;17.23;;;5.50;99.90;;;;;;4806087;29;20137;-81
2022/03/15 07:05:41;;;;;;;30.55;16.80;;;5.20;99.90;;;;;;4805309;29;20051;-81
2022/03/15 07:08:08;;;;;;;33.15;17.25;;;5.20;99.90;;;;;;4816181;29;20164;-81
2022/03/15 07:10:34;;;;;;;39.63;17.63;;;5.40;99.90;;;;;;4810920;29;20464;-81
2022/03/15 07:13:00;;;;;;;34.88;17.35;;;5.30;99.90;;;;;;4805882;29;20055;-80
2022/03/15 07:15:26;;;;;;;34.38;17.33;;;5.40;99.90;;;;;;4805370;29;20504;-81
2022/03/15 07:17:54;;;;;;;35.38;18.38;;;5.40;99.90;;;;;;4805950;29;20107;-81
2022/03/15 07:20:20;;;;;;;36.72;18.58;;;5.60;99.90;;;;;;4807136;29;20059;-81
2022/03/15 07:22:46;;;;;;;33.25;18.25;;;5.40;99.90;;;;;;4823528;29;20056;-82
2022/03/15 07:25:12;;;;;;;32.17;16.98;;;5.40;99.90;;;;;;4819031;29;20051;-79
2022/03/15 07:27:38;;;;;;;32.40;16.48;;;5.50;99.90;;;;;;4828770;29;20503;-81
2022/03/15 07:30:05;;;;;;;32.72;17.48;;;5.50;99.90;;;;;;4808870;29;20122;-81
2022/03/15 07:32:31;;;;;;;30.52;17.15;;;5.50;99.90;;;;;;4811753;29;20085;-85
2022/03/15 07:34:56;;;;;;;33.92;17.83;;;5.60;99.90;;;;;;4806645;29;20078;-81
2022/03/15 07:37:22;;;;;;;31.85;17.55;;;5.60;99.90;;;;;;4811608;29;20438;-83
2022/03/15 07:39:48;;;;;;;41.92;20.05;;;5.60;99.90;;;;;;4825820;29;20058;-84
2022/03/15 07:42:14;;;;;;;34.60;17.77;;;5.60;99.90;;;;;;4807133;29;20061;-83
2022/03/15 07:44:44;;;;;;;31.73;18.08;;;5.60;99.90;;;;;;4823572;29;20050;-84
2022/03/15 07:47:10;;;;;;;39.50;19.55;;;5.60;99.90;;;;;;4816293;29;20090;-83
2022/03/15 07:49:36;;;;;;;35.13;19.80;;;5.70;99.90;;;;;;4813042;29;20099;-83
2022/03/15 07:52:02;;;;;;;36.85;18.77;;;5.70;99.90;;;;;;4829784;29;20051;-84
2022/03/15 07:54:28;;;;;;;34.35;19.00;;;5.70;99.90;;;;;;4804647;29;20063;-83
2022/03/15 07:56:54;;;;;;;37.38;19.17;;;5.70;99.90;;;;;;4811131;29;20408;-83
2022/03/15 07:59:20;;;;;;;31.67;18.23;;;6.00;99.90;;;;;;4826399;29;20055;-84
2022/03/15 08:01:45;;;;;;;33.08;18.50;;;5.80;99.90;;;;;;4810824;29;20092;-84
2022/03/15 08:04:11;;;;;;;32.83;18.10;;;6.00;99.90;;;;;;4804684;29;20058;-83
2022/03/15 08:06:37;;;;;;;32.97;19.17;;;5.90;99.90;;;;;;4803911;29;20134;-81
2022/03/15 08:09:03;;;;;;;33.85;19.02;;;6.00;99.90;;;;;;4839271;29;20053;-83
2022/03/15 08:11:29;;;;;;;35.35;18.73;;;6.00;99.90;;;;;;4804521;29;20084;-83
2022/03/15 08:13:56;;;;;;;35.38;18.35;;;6.00;99.90;;;;;;4806613;29;20062;-83
2022/03/15 08:16:22;;;;;;;33.50;20.05;;;6.20;99.90;;;;;;4810325;29;20568;-83
2022/03/15 08:18:49;;;;;;;37.25;19.35;;;6.00;99.90;;;;;;4803550;29;20460;-84
2022/03/15 08:21:15;;;;;;;33.70;18.02;;;6.10;99.90;;;;;;4812107;29;20095;-82
2022/03/15 08:23:41;;;;;;;33.25;18.73;;;6.30;99.90;;;;;;4833533;29;20595;-83
2022/03/15 08:26:06;;;;;;;30.15;18.27;;;6.20;99.90;;;;;;4818584;29;20046;-82
2022/03/15 08:28:32;;;;;;;36.53;19.45;;;6.20;99.90;;;;;;4815293;29;20058;-82
2022/03/15 08:30:59;;;;;;;34.47;19.83;;;6.20;99.90;;;;;;4812882;29;20084;-83
2022/03/15 08:33:25;;;;;;;37.20;19.35;;;6.30;99.90;;;;;;4803051;29;20136;-82
2022/03/15 08:35:51;;;;;;;31.95;18.40;;;6.60;99.90;;;;;;4805892;29;20083;-83
2022/03/15 08:38:17;;;;;;;35.53;20.35;;;6.40;99.90;;;;;;4803907;29;20126;-83
2022/03/15 08:40:43;;;;;;;34.33;19.35;;;6.40;99.90;;;;;;4818688;29;20469;-84
2022/03/15 08:43:09;;;;;;;34.13;19.15;;;6.70;99.90;;;;;;4807594;29;20141;-83
2022/03/15 08:45:36;;;;;;;36.45;20.75;;;6.50;99.90;;;;;;4802534;29;20143;-83
2022/03/15 08:48:03;;;;;;;33.13;18.52;;;6.50;99.90;;;;;;4804330;29;20054;-83
2022/03/15 08:50:29;;;;;;;30.73;18.77;;;6.50;99.90;;;;;;4808441;29;20065;-82
2022/03/15 08:52:58;;;;;;;30.17;19.23;;;6.50;99.90;;;;;;4804425;29;20154;-82
2022/03/15 08:55:25;;;;;;;36.03;19.70;;;6.60;99.90;;;;;;4830689;29;20397;-82
2022/03/15 08:57:51;;;;;;;33.78;20.20;;;6.60;99.90;;;;;;4804086;29;20051;-84
2022/03/15 09:00:17;;;;;;;35.53;19.75;;;6.60;99.90;;;;;;4824634;29;20051;-84
2022/03/15 09:02:43;;;;;;;29.38;18.05;;;6.60;99.90;;;;;;4804322;29;20420;-82
2022/03/15 09:05:10;;;;;;;29.80;18.73;;;6.70;99.90;;;;;;4812348;29;20102;-84
2022/03/15 09:07:36;;;;;;;30.08;19.20;;;6.70;99.90;;;;;;4817146;29;20136;-83
2022/03/15 09:10:03;;;;;;;33.15;19.02;;;6.70;99.90;;;;;;4807693;29;20173;-84
2022/03/15 09:12:29;;;;;;;32.45;19.17;;;6.70;99.90;;;;;;4803748;29;20150;-84
2022/03/15 09:14:54;;;;;;;29.63;18.80;;;6.80;99.90;;;;;;4811326;29;20149;-88
2022/03/15 09:17:20;;;;;;;34.97;19.77;;;6.80;99.90;;;;;;4814269;29;20536;-83
2022/03/15 09:19:46;;;;;;;36.13;20.33;;;6.90;99.90;;;;;;4803266;29;20108;-85
2022/03/15 09:22:12;;;;;;;37.58;20.10;;;6.90;99.90;;;;;;4810018;29;20054;-85
2022/03/15 09:24:38;;;;;;;31.15;19.85;;;7.00;99.90;;;;;;4832583;29;20122;-83
2022/03/15 09:27:04;;;;;;;35.58;21.85;;;7.10;99.90;;;;;;4804088;29;20051;-83
2022/03/15 09:29:31;;;;;;;34.38;21.63;;;7.10;99.90;;;;;;4806215;29;20111;-84
2022/03/15 09:31:57;;;;;;;34.72;21.05;;;7.20;99.90;;;;;;4809402;29;20051;-84
2022/03/15 09:34:25;;;;;;;34.47;21.23;;;7.20;99.90;;;;;;4820755;29;20069;-84
2022/03/15 09:36:50;;;;;;;34.85;20.98;;;7.30;99.90;;;;;;4806559;29;20099;-81
2022/03/15 09:39:18;;;;;;;35.58;20.75;;;7.30;99.90;;;;;;4805988;29;20489;-86
2022/03/15 09:41:47;;;;;;;33.42;20.85;;;7.40;99.90;;;;;;4806304;29;20072;-85
2022/03/15 09:44:17;;;;;;;31.42;19.70;;;7.40;99.90;;;;;;4808053;29;20057;-83
2022/03/15 09:46:50;;;;;;;37.65;21.50;;;7.50;99.90;;;;;;4823909;29;20054;-83
2022/03/15 09:49:16;;;;;;;32.80;21.05;;;7.50;99.90;;;;;;4810868;29;20416;-84
2022/03/15 09:51:43;;;;;;;35.35;20.60;;;7.60;99.90;;;;;;4808680;29;20055;-82
2022/03/15 09:54:09;;;;;;;33.55;19.95;;;7.60;99.90;;;;;;4807076;29;20065;-84
2022/03/15 09:56:38;;;;;;;33.17;19.70;;;7.70;99.90;;;;;;4806289;29;20058;-83
2022/03/15 09:59:14;;;;;;;35.95;21.70;;;7.80;99.90;;;;;;4813030;29;20106;-88
2022/03/15 10:01:42;;;;;;;33.70;21.75;;;7.90;99.90;;;;;;4802535;29;20404;-85
2022/03/15 10:04:08;;;;;;;29.83;19.67;;;7.90;99.90;;;;;;4809594;29;20055;-83
2022/03/15 10:06:38;;;;;;;30.98;21.27;;;8.00;99.90;;;;;;4806309;29;20085;-83
2022/03/15 10:09:07;;;;;;;33.05;21.98;;;8.00;99.90;;;;;;4816117;29;20070;-84
2022/03/15 10:11:33;;;;;;;32.88;21.17;;;8.10;99.90;;;;;;4812785;29;20420;-83
2022/03/15 10:13:59;;;;;;;33.35;20.85;;;8.10;99.90;;;;;;4835745;29;20108;-84
2022/03/15 10:16:32;;;;;;;32.70;20.73;;;8.10;99.90;;;;;;4805663;29;20050;-84
2022/03/15 10:18:59;;;;;;;36.03;21.05;;;8.10;99.90;;;;;;4813553;29;20050;-84
2022/03/15 10:21:44;;;;;;;29.90;20.73;;;8.10;99.90;;;;;;4806607;29;20416;-84
2022/03/15 10:24:13;;;;;;;31.75;20.23;;;8.10;99.90;;;;;;4805461;29;20047;-85
2022/03/15 10:26:40;;;;;;;30.77;19.15;;;8.10;99.90;;;;;;4810395;29;20101;-83
2022/03/15 10:29:07;;;;;;;36.63;20.92;;;8.10;99.90;;;;;;4821800;29;20062;-83
2022/03/15 10:31:34;;;;;;;32.63;20.88;;;8.20;99.90;;;;;;4806669;29;20504;-83
2022/03/15 10:34:03;;;;;;;34.83;20.58;;;8.20;99.90;;;;;;4805538;29;20536;-84
2022/03/15 10:36:37;;;;;;;31.73;21.05;;;8.30;99.90;;;;;;4804615;29;20051;-81
2022/03/15 10:39:04;;;;;;;27.40;18.55;;;8.40;99.90;;;;;;4805087;29;20532;-85
2022/03/15 10:41:29;;;;;;;33.53;20.30;;;8.40;99.90;;;;;;4805234;29;20520;-84
2022/03/15 10:43:59;;;;;;;34.42;20.92;;;8.40;99.90;;;;;;4806372;29;20089;-84
2022/03/15 10:46:26;;;;;;;31.63;20.98;;;8.50;99.90;;;;;;4808328;29;20508;-84
2022/03/15 10:49:00;;;;;;;32.35;21.15;;;8.50;99.90;;;;;;4822803;29;20094;-83
2022/03/15 10:51:25;;;;;;;31.63;19.95;;;8.60;99.90;;;;;;4805412;29;20961;-83
2022/03/15 10:54:03;;;;;;;34.65;20.85;;;8.60;99.90;;;;;;4805393;29;20129;-84
2022/03/15 10:56:30;;;;;;;32.97;21.00;;;8.80;99.90;;;;;;4805932;29;20457;-84
2022/03/15 10:59:05;;;;;;;31.35;20.02;;;8.70;99.90;;;;;;4810289;29;20146;-84
2022/03/15 11:01:40;;;;;;;32.25;20.38;;;8.70;99.90;;;;;;4812992;29;20069;-86
2022/03/15 11:04:09;;;;;;;28.67;19.98;;;8.80;99.90;;;;;;4821628;29;20128;-85
2022/03/15 11:06:44;;;;;;;33.00;19.58;;;8.90;99.90;;;;;;4817387;29;20094;-84
2022/03/15 11:09:30;;;;;;;30.33;19.58;;;8.90;99.90;;;;;;4805575;29;20058;-84
2022/03/15 11:12:01;;;;;;;29.45;19.75;;;9.00;99.90;;;;;;4804885;29;20125;-85
2022/03/15 11:14:47;;;;;;;28.73;20.10;;;9.10;99.90;;;;;;4804183;29;20062;-84
2022/03/15 11:17:13;;;;;;;29.35;19.55;;;9.10;99.90;;;;;;4823097;29;20050;-84
2022/03/15 11:19:43;;;;;;;28.42;19.52;;;9.20;99.90;;;;;;4805338;29;20061;-85
2022/03/15 11:22:10;;;;;;;29.13;18.92;;;9.30;99.90;;;;;;4806943;29;20054;-85
2022/03/15 11:24:41;;;;;;;32.22;19.83;;;9.40;99.90;;;;;;4804621;29;20079;-84
2022/03/15 11:27:08;;;;;;;33.45;20.38;;;9.50;99.90;;;;;;4805347;29;20099;-84
2022/03/15 11:29:36;;;;;;;25.95;19.00;;;9.60;99.90;;;;;;4807025;29;20065;-83
2022/03/15 11:32:02;;;;;;;26.60;18.90;;;9.70;99.90;;;;;;4812846;29;20069;-84
2022/03/15 11:34:29;;;;;;;30.23;17.55;;;9.80;99.90;;;;;;4805526;29;20054;-82
2022/03/15 11:36:57;;;;;;;24.33;17.23;;;9.90;99.90;;;;;;4804357;29;20102;-84
2022/03/15 11:39:24;;;;;;;28.27;18.70;;;10.00;99.90;;;;;;4805308;29;20094;-84
2022/03/15 11:41:50;;;;;;;24.30;18.00;;;10.10;99.90;;;;;;4810852;29;20054;-84
2022/03/15 11:44:33;;;;;;;27.55;17.95;;;10.10;99.90;;;;;;4804452;29;20140;-84
2022/03/15 11:47:11;;;;;;;29.23;18.23;;;10.20;99.90;;;;;;4805145;29;20119;-84
2022/03/15 11:50:06;;;;;;;29.23;18.17;;;10.30;99.90;;;;;;4804806;29;20058;-84
2022/03/15 11:52:55;;;;;;;24.10;16.95;;;10.30;99.90;;;;;;4829903;29;20454;-82
2022/03/15 11:55:42;;;;;;;24.88;17.40;;;10.40;99.90;;;;;;4836917;29;20050;-84
2022/03/15 11:58:10;;;;;;;25.02;17.17;;;10.50;99.90;;;;;;4801175;29;20058;-83
2022/03/15 12:00:44;;;;;;;22.55;16.77;;;10.60;99.90;;;;;;4816411;29;20054;-84
2022/03/15 12:03:10;;;;;;;27.23;16.77;;;10.60;99.90;;;;;;4814663;29;20162;-83
2022/03/15 12:05:45;;;;;;;26.73;16.83;;;10.60;99.90;;;;;;4812930;29;20077;-84
2022/03/15 12:08:20;;;;;;;27.73;17.48;;;10.70;99.90;;;;;;4832959;29;20055;-84
2022/03/15 12:11:04;;;;;;;26.10;16.15;;;10.70;99.90;;;;;;4813774;29;20095;-83
2022/03/15 12:13:37;;;;;;;26.60;17.50;;;10.70;99.90;;;;;;4814126;29;20121;-83
2022/03/15 12:16:15;;;;;;;23.20;16.08;;;10.80;99.90;;;;;;4813145;29;20493;-84
2022/03/15 12:18:54;;;;;;;23.08;15.82;;;10.90;99.90;;;;;;4809348;29;20114;-85
2022/03/15 12:21:26;;;;;;;24.38;15.07;;;11.00;99.90;;;;;;4835107;29;20397;-84
2022/03/15 12:23:54;;;;;;;23.33;15.82;;;11.00;99.90;;;;;;4812543;29;20047;-85
2022/03/15 12:26:26;;;;;;;23.00;15.95;;;11.10;99.90;;;;;;4811835;29;20049;-84
2022/03/15 12:29:02;;;;;;;23.63;15.23;;;11.10;99.90;;;;;;4813436;29;20088;-83
2022/03/15 12:31:34;;;;;;;25.20;15.40;;;11.10;99.90;;;;;;4813826;29;20055;-84
2022/03/15 12:34:01;;;;;;;23.77;14.70;;;11.10;99.90;;;;;;4812222;29;20187;-83
2022/03/15 12:36:36;;;;;;;24.75;15.48;;;11.10;99.90;;;;;;4813119;29;20824;-83
2022/03/15 12:39:09;;;;;;;24.15;14.60;;;11.10;99.90;;;;;;4803571;29;20134;-83
2022/03/15 12:41:35;;;;;;;22.95;14.88;;;11.10;99.90;;;;;;4812357;29;20047;-84